createdAt,value
2022-12-22T00:00:33.786Z,100049.88
2022-12-22T00:03:19.702Z,100059.28
2022-12-22T00:06:05.222Z,100065.25
2022-12-22T00:08:50.751Z,100054.66
2022-12-22T00:11:36.393Z,100045.53
2022-12-22T00:14:22.125Z,100055.16
2022-12-22T00:17:07.504Z,100044.56
2022-12-22T00:19:53.177Z,100051.38
2022-12-22T00:22:42.327Z,100039.94
2022-12-22T00:25:33.181Z,100028.94
2022-12-22T00:28:19.307Z,100024.56
2022-12-22T00:31:05.491Z,100026.53
2022-12-22T00:33:51.381Z,100021.03
2022-12-22T00:36:39.700Z,100014.81
2022-12-22T00:39:31.685Z,100023.84
2022-12-22T00:42:17.437Z,100004.97
2022-12-22T00:45:02.993Z,100005.56
2022-12-22T00:47:49.933Z,100001.19
2022-12-22T00:50:36.363Z,99995.06
2022-12-22T00:53:23.166Z,99997.75
2022-12-22T00:56:09.024Z,99990.31
2022-12-22T00:58:54.577Z,99990.44
2022-12-22T01:01:40.311Z,99994.63
2022-12-22T01:04:29.774Z,99984.72
2022-12-22T01:07:16.522Z,99978.75
2022-12-22T01:10:09.604Z,99988.97
2022-12-22T01:12:59.797Z,99980.94
2022-12-22T01:15:47.575Z,99966.69
2022-12-22T01:18:33.507Z,99973.63
2022-12-22T01:21:19.852Z,99963.66
2022-12-22T01:24:05.695Z,99963.66
2022-12-22T01:26:51.123Z,99969.00
2022-12-22T01:29:36.664Z,99966.94
2022-12-22T01:32:22.785Z,99968.50
2022-12-22T01:35:08.509Z,99964.00
2022-12-22T01:37:54.084Z,99956.81
2022-12-22T01:40:43.844Z,99955.94
2022-12-22T01:43:44.368Z,99949.59
2022-12-22T01:46:45.210Z,99945.97
2022-12-22T01:49:41.868Z,99937.06
2022-12-22T01:52:29.745Z,99932.69
2022-12-22T01:55:23.112Z,99946.81
2022-12-22T01:58:09.523Z,99943.19
2022-12-22T02:00:54.956Z,99947.44
2022-12-22T02:03:42.343Z,99949.97
2022-12-22T02:07:00.452Z,99944.25
2022-12-22T02:10:13.639Z,99938.16
2022-12-22T02:13:32.895Z,99935.38
2022-12-22T02:16:45.883Z,99930.84
2022-12-22T02:20:04.130Z,99937.91
2022-12-22T02:23:12.609Z,99926.06
2022-12-22T02:26:12.044Z,99926.91
2022-12-22T02:28:58.956Z,99918.03
2022-12-22T02:31:44.618Z,99910.94
2022-12-22T02:34:33.958Z,99902.53
2022-12-22T02:37:42.483Z,99899.84
2022-12-22T02:40:45.641Z,99892.19
2022-12-22T02:43:54.688Z,99905.22
2022-12-22T02:46:49.017Z,99891.66
2022-12-22T02:49:41.865Z,99890.81
2022-12-22T02:52:41.493Z,99896.19
2022-12-22T02:55:27.447Z,99893.75
2022-12-22T02:58:13.275Z,99896.44
2022-12-22T03:00:59.452Z,99888.53
2022-12-22T03:03:45.519Z,99878.91
2022-12-22T03:06:31.372Z,99875.25
2022-12-22T03:09:17.024Z,99869.16
2022-12-22T03:12:02.799Z,99864.88
2022-12-22T03:14:48.620Z,99862.44
2022-12-22T03:17:34.562Z,99853.66
2022-12-22T03:20:19.879Z,99852.22
2022-12-22T03:23:05.392Z,99838.81
2022-12-22T03:25:50.359Z,99837.34
2022-12-22T03:28:17.246Z,99842.13
2022-12-22T03:30:44.146Z,99822.66
2022-12-22T03:33:11.087Z,99827.00
2022-12-22T03:35:37.934Z,99823.34
2022-12-22T03:38:04.857Z,99813.59
2022-12-22T03:40:32.021Z,99815.19
2022-12-22T03:43:17.632Z,99804.47
2022-12-22T03:46:04.320Z,99810.53
2022-12-22T03:48:31.653Z,99801.66
2022-12-22T03:50:58.512Z,99804.19
2022-12-22T03:53:25.436Z,99807.75
2022-12-22T03:55:52.393Z,99809.91
2022-12-22T03:58:19.619Z,99803.72
2022-12-22T04:00:46.834Z,99794.06
2022-12-22T04:03:14.248Z,99793.97
2022-12-22T04:05:41.395Z,99798.34
2022-12-22T04:08:08.325Z,99802.59
2022-12-22T04:10:53.786Z,99803.44
2022-12-22T04:13:20.723Z,99803.72
2022-12-22T04:15:47.591Z,99799.31
2022-12-22T04:18:14.470Z,99799.44
2022-12-22T04:20:41.351Z,99789.94
2022-12-22T04:23:08.295Z,99788.00
2022-12-22T04:25:35.131Z,99780.78
2022-12-22T04:28:02.016Z,99777.88
2022-12-22T04:30:28.888Z,99782.13
2022-12-22T04:32:55.806Z,99773.34
2022-12-22T04:35:22.952Z,99774.22
2022-12-22T04:37:49.831Z,99776.03
2022-12-22T04:40:16.880Z,99761.66
2022-12-22T04:42:44.454Z,99774.06
2022-12-22T04:45:11.445Z,99768.44
2022-12-22T04:47:38.367Z,99759.69
2022-12-22T04:50:06.323Z,99752.34
2022-12-22T04:52:33.236Z,99751.50
2022-12-22T04:55:00.126Z,99746.97
2022-12-22T04:57:27.158Z,99753.34
2022-12-22T04:59:55.220Z,99747.84
2022-12-22T05:02:22.209Z,99747.13
2022-12-22T05:04:49.207Z,99738.94
2022-12-22T05:07:16.231Z,99732.88
2022-12-22T05:09:43.131Z,99731.75
2022-12-22T05:12:29.280Z,99722.75
2022-12-22T05:14:56.175Z,99717.09
2022-12-22T05:17:23.093Z,99714.41
2022-12-22T05:19:50.072Z,99706.50
2022-12-22T05:22:17.003Z,99700.41
2022-12-22T05:24:43.934Z,99700.16
2022-12-22T05:27:12.260Z,99698.22
2022-12-22T05:29:39.164Z,99696.50
2022-12-22T05:32:06.015Z,99695.63
2022-12-22T05:34:33.001Z,99689.44
2022-12-22T05:36:59.874Z,99688.59
2022-12-22T05:39:26.795Z,99693.97
2022-12-22T05:41:53.701Z,99693.09
2022-12-22T05:44:20.685Z,99689.28
2022-12-22T05:46:52.218Z,99691.97
2022-12-22T05:49:19.950Z,99697.34
2022-12-22T05:51:46.919Z,99691.13
2022-12-22T05:54:13.889Z,99695.38
2022-12-22T05:56:40.981Z,99697.69
2022-12-22T05:59:07.883Z,99700.50
2022-12-22T06:01:35.225Z,99694.16
2022-12-22T06:04:02.432Z,99697.44
2022-12-22T06:06:29.522Z,99688.50
2022-12-22T06:08:56.683Z,99687.69
2022-12-22T06:11:23.564Z,99686.69
2022-12-22T06:13:50.602Z,99686.56
2022-12-22T06:16:17.562Z,99681.34
2022-12-22T06:18:48.005Z,99684.13
2022-12-22T06:21:14.874Z,99685.84
2022-12-22T06:23:41.793Z,99675.38
2022-12-22T06:26:09.476Z,99674.13
2022-12-22T06:28:36.713Z,99675.38
2022-12-22T06:31:04.017Z,99686.56
2022-12-22T06:33:31.479Z,99680.47
2022-12-22T06:35:59.517Z,99690.34
2022-12-22T06:38:28.242Z,99698.03
2022-12-22T06:40:55.591Z,99684.84
2022-12-22T06:43:22.536Z,99685.44
2022-12-22T06:45:49.417Z,99682.56
2022-12-22T06:48:16.841Z,99687.53
2022-12-22T06:50:43.701Z,99675.38
2022-12-22T06:53:11.547Z,99691.09
2022-12-22T06:55:39.025Z,99680.75
2022-12-22T06:58:06.323Z,99684.28
2022-12-22T07:00:34.043Z,99682.81
2022-12-22T07:03:01.394Z,99683.22
2022-12-22T07:05:30.432Z,99687.72
2022-12-22T07:08:01.158Z,99693.09
2022-12-22T07:10:52.206Z,99677.78
2022-12-22T07:13:23.915Z,99686.41
2022-12-22T07:15:59.579Z,99698.47
2022-12-22T07:18:32.784Z,99691.97
2022-12-22T07:21:02.112Z,99700.91
2022-12-22T07:23:30.308Z,99695.53
2022-12-22T07:25:57.373Z,99694.78
2022-12-22T07:28:25.226Z,99698.22
2022-12-22T07:30:54.943Z,99696.75
2022-12-22T07:33:22.401Z,99715.13
2022-12-22T07:35:49.322Z,99716.84
2022-12-22T07:38:16.246Z,99700.41
2022-12-22T07:40:44.980Z,99705.66
2022-12-22T07:43:13.676Z,99709.19
2022-12-22T07:45:40.570Z,99692.50
2022-12-22T07:48:27.549Z,99689.75
2022-12-22T07:50:56.982Z,99700.22
2022-12-22T07:53:23.865Z,99704.88
2022-12-22T07:55:50.791Z,99704.28
2022-12-22T07:58:17.658Z,99706.81
2022-12-22T08:00:44.608Z,99714.72
2022-12-22T08:03:11.947Z,99720.09
2022-12-22T08:05:38.944Z,99704.53
2022-12-22T08:08:06.065Z,99716.44
2022-12-22T08:10:33.402Z,99728.72
2022-12-22T08:13:00.334Z,99726.91
2022-12-22T08:15:27.301Z,99727.75
2022-12-22T08:17:54.444Z,99722.53
2022-12-22T08:20:21.335Z,99738.34
2022-12-22T08:22:48.195Z,99738.34
2022-12-22T08:25:15.147Z,99742.72
2022-12-22T08:27:49.058Z,99737.13
2022-12-22T08:30:16.055Z,99733.56
2022-12-22T08:32:47.301Z,99731.50
2022-12-22T08:35:14.310Z,99725.66
2022-12-22T08:37:43.658Z,99721.88
2022-12-22T08:40:18.712Z,99726.41
2022-12-22T08:42:47.153Z,99731.03
2022-12-22T08:45:14.363Z,99738.69
2022-12-22T08:47:41.425Z,99742.34
2022-12-22T08:50:09.435Z,99736.75
2022-12-22T08:52:36.358Z,99742.84
2022-12-22T08:55:03.250Z,99745.25
2022-12-22T08:57:30.239Z,99741.00
2022-12-22T08:59:57.155Z,99754.75
2022-12-22T09:02:24.173Z,99750.34
2022-12-22T09:04:51.157Z,99750.22
2022-12-22T09:07:18.639Z,99757.28
2022-12-22T09:09:46.571Z,99753.88
2022-12-22T09:12:13.574Z,99750.50
2022-12-22T09:14:40.496Z,99753.88
2022-12-22T09:17:08.446Z,99752.44
2022-12-22T09:19:35.611Z,99767.19
2022-12-22T09:22:02.630Z,99762.19
2022-12-22T09:24:29.622Z,99773.38
2022-12-22T09:26:57.234Z,99778.03
2022-12-22T09:29:24.199Z,99777.03
2022-12-22T09:31:51.378Z,99784.84
2022-12-22T09:34:18.873Z,99782.88
2022-12-22T09:36:46.541Z,99775.16
2022-12-22T09:39:14.201Z,99778.56
2022-12-22T09:41:51.283Z,99781.69
2022-12-22T09:44:38.009Z,99788.06
2022-12-22T09:47:29.704Z,99780.72
2022-12-22T09:49:57.950Z,99798.19
2022-12-22T09:52:46.597Z,99801.56
2022-12-22T09:55:47.328Z,99802.59
2022-12-22T09:58:31.578Z,99803.91
2022-12-22T10:01:29.381Z,99810.00
2022-12-22T10:04:28.828Z,99813.09
2022-12-22T10:07:25.724Z,99833.00
2022-12-22T10:09:52.832Z,99825.88
2022-12-22T10:12:24.619Z,99825.97
2022-12-22T10:14:54.123Z,99818.06
2022-12-22T10:17:29.037Z,99835.41
2022-12-22T10:20:27.570Z,99828.34
2022-12-22T10:23:21.138Z,99802.75
2022-12-22T10:26:27.557Z,99809.28
2022-12-22T10:29:10.493Z,99807.97
2022-12-22T10:31:58.871Z,99823.44
2022-12-22T10:34:26.057Z,99825.16
2022-12-22T10:36:59.668Z,99838.88
2022-12-22T10:39:34.523Z,99845.13
2022-12-22T10:42:14.577Z,99841.16
2022-12-22T10:44:47.806Z,99843.47
2022-12-22T10:47:20.809Z,99838.22
2022-12-22T10:52:29.481Z,99844.53
2022-12-22T10:55:21.892Z,99852.78
2022-12-22T10:57:50.150Z,99861.69
2022-12-22T11:00:27.233Z,99850.09
2022-12-22T11:02:57.890Z,99853.22
2022-12-22T11:05:25.676Z,99852.00
2022-12-22T11:07:53.366Z,99842.63
2022-12-22T11:10:43.966Z,99864.75
2022-12-22T11:13:51.547Z,99877.19
2022-12-22T11:16:33.078Z,99871.72
2022-12-22T11:19:40.541Z,99890.97
2022-12-22T11:22:23.644Z,99885.16
2022-12-22T11:25:32.725Z,99891.63
2022-12-22T11:28:34.399Z,99894.06
2022-12-22T11:31:47.014Z,99887.13
2022-12-22T11:35:11.425Z,99892.78
2022-12-22T11:37:43.954Z,99899.97
2022-12-22T11:40:31.111Z,99902.31
2022-12-22T11:43:27.336Z,99889.19
2022-12-22T11:46:37.560Z,99892.91
2022-12-22T11:49:44.953Z,99892.19
2022-12-22T11:52:34.259Z,99892.19
2022-12-22T11:55:29.427Z,99895.28
2022-12-22T11:58:34.030Z,99904.53
2022-12-22T12:01:34.560Z,99901.72
2022-12-22T12:04:33.345Z,99896.16
2022-12-22T12:07:40.976Z,99915.59
2022-12-22T12:10:28.911Z,99917.59
2022-12-22T12:13:30.067Z,99918.47
2022-12-22T12:16:31.454Z,99927.25
2022-12-22T12:19:26.841Z,99940.44
2022-12-22T12:22:00.151Z,99950.50
2022-12-22T12:24:52.178Z,99951.59
2022-12-22T12:27:43.376Z,99950.34
2022-12-22T12:33:20.903Z,99954.66
2022-12-22T12:36:13.839Z,99964.13
2022-12-22T12:39:07.854Z,99964.63
2022-12-22T12:42:23.440Z,99962.09
2022-12-22T12:44:53.131Z,99963.00
2022-12-22T12:47:23.495Z,99964.41
2022-12-22T12:50:00.300Z,99962.75
2022-12-22T12:52:53.631Z,99971.69
2022-12-22T12:55:32.822Z,99969.13
2022-12-22T12:58:03.833Z,99952.56
2022-12-22T13:00:33.796Z,99978.50
2022-12-22T13:03:25.074Z,99952.09
2022-12-22T13:06:01.407Z,99974.66
2022-12-22T13:08:31.853Z,99982.59
2022-12-22T13:10:58.818Z,99977.06
2022-12-22T13:13:25.606Z,99980.06
2022-12-22T13:16:02.034Z,99976.25
2022-12-22T13:18:37.470Z,99975.66
2022-12-22T13:21:51.751Z,99979.81
2022-12-22T13:24:29.516Z,99986.03
2022-12-22T13:27:04.226Z,99978.66
2022-12-22T13:29:45.109Z,99972.88
2022-12-22T13:32:27.905Z,99977.94
2022-12-22T13:35:46.618Z,99987.72
2022-12-22T13:38:37.291Z,99989.50
2022-12-22T13:41:21.406Z,99993.44
2022-12-22T13:44:03.250Z,99992.28
2022-12-22T13:46:33.691Z,99991.13
2022-12-22T13:49:04.772Z,99983.28
2022-12-22T13:51:36.235Z,99991.44
2022-12-22T13:54:11.102Z,100006.81
2022-12-22T13:56:52.228Z,100007.59
2022-12-22T13:59:39.976Z,100006.56
2022-12-22T14:02:09.980Z,100022.84
2022-12-22T14:04:43.100Z,100017.53
2022-12-22T14:07:19.459Z,100021.00
2022-12-22T14:09:55.898Z,100024.78
2022-12-22T14:12:39.701Z,100030.28
2022-12-22T14:15:16.923Z,100018.25
2022-12-22T14:17:52.180Z,100018.25
2022-12-22T14:20:28.085Z,100019.41
2022-12-22T14:23:07.570Z,100014.44
2022-12-22T14:25:39.035Z,100022.09
2022-12-22T14:28:15.308Z,100016.34
2022-12-22T14:30:46.542Z,100034.25
2022-12-22T14:33:28.519Z,100039.97
2022-12-22T14:36:26.163Z,100041.03
2022-12-22T14:39:03.954Z,100050.63
2022-12-22T14:41:52.105Z,100046.91
2022-12-22T14:44:28.356Z,100049.81
2022-12-22T14:47:12.551Z,100054.16
2022-12-22T14:50:10.038Z,100063.44
2022-12-22T14:53:00.108Z,100070.88
2022-12-22T14:55:41.045Z,100065.03
2022-12-22T14:58:20.341Z,100068.34
2022-12-22T15:01:12.783Z,100073.41
2022-12-22T15:03:40.843Z,100072.16
2022-12-22T15:06:29.206Z,100074.25
2022-12-22T15:09:09.009Z,100072.22
2022-12-22T15:11:41.165Z,100071.72
2022-12-22T15:14:19.183Z,100067.38
2022-12-22T15:16:48.593Z,100071.91
2022-12-22T15:19:36.989Z,100055.66
2022-12-22T15:22:08.106Z,100067.50
2022-12-22T15:24:35.621Z,100068.97
2022-12-22T15:27:02.693Z,100058.88
2022-12-22T15:29:29.666Z,100080.44
2022-12-22T15:31:56.740Z,100081.78
2022-12-22T15:34:28.122Z,100081.16
2022-12-22T15:36:55.258Z,100083.75
2022-12-22T15:39:23.338Z,100089.34
2022-12-22T15:41:50.929Z,100086.78
2022-12-22T15:44:18.134Z,100083.84
2022-12-22T15:46:51.789Z,100054.22
2022-12-22T15:49:23.105Z,100087.25
2022-12-22T15:51:55.617Z,100084.94
2022-12-22T15:54:23.500Z,100087.09
2022-12-22T15:56:52.740Z,100086.38
2022-12-22T15:59:25.679Z,100089.91
2022-12-22T16:02:00.335Z,100080.63
2022-12-22T16:04:28.502Z,100089.53
2022-12-22T16:06:56.271Z,100082.56
2022-12-22T16:09:31.328Z,100096.59
2022-12-22T16:11:58.605Z,100086.63
2022-12-22T16:14:25.524Z,100082.47
2022-12-22T16:16:52.841Z,100072.72
2022-12-22T16:19:19.792Z,100072.81
2022-12-22T16:21:50.777Z,100065.03
2022-12-22T16:24:38.054Z,100058.09
2022-12-22T16:27:05.335Z,100053.56
2022-12-22T16:29:32.225Z,100053.56
2022-12-22T16:32:28.534Z,100061.63
2022-12-22T16:35:14.902Z,100058.09
2022-12-22T16:37:42.691Z,100054.53
2022-12-22T16:40:10.639Z,100052.00
2022-12-22T16:45:27.479Z,100055.84
2022-12-22T16:48:00.027Z,100051.38
2022-12-22T16:50:32.942Z,100046.25
2022-12-22T16:53:03.563Z,100042.94
2022-12-22T16:55:31.726Z,100054.88
2022-12-22T16:57:58.675Z,100043.78
2022-12-22T17:00:30.846Z,100050.97
2022-12-22T17:03:13.743Z,100050.41
2022-12-22T17:05:54.133Z,100045.75
2022-12-22T17:08:34.302Z,100040.88
2022-12-22T17:11:10.541Z,100041.09
2022-12-22T17:13:38.585Z,100034.50
2022-12-22T17:16:06.029Z,100034.78
2022-12-22T17:18:34.865Z,100032.31
2022-12-22T17:21:01.967Z,100034.38
2022-12-22T17:23:35.174Z,100029.97
2022-12-22T17:26:07.321Z,100009.66
2022-12-22T17:28:36.372Z,100010.13
2022-12-22T17:31:03.394Z,100018.91
2022-12-22T17:33:32.526Z,100009.28
2022-12-22T17:36:01.268Z,100012.72
2022-12-22T17:38:29.514Z,100011.72
2022-12-22T17:40:57.557Z,100009.03
2022-12-22T17:43:24.641Z,100002.00
2022-12-22T17:45:52.370Z,99997.69
2022-12-22T17:48:22.640Z,99976.22
2022-12-22T17:50:50.264Z,99991.22
2022-12-22T17:53:20.146Z,100000.97
2022-12-22T17:58:36.268Z,99989.09
2022-12-22T18:01:03.414Z,99995.56
2022-12-22T18:03:30.421Z,99990.34
2022-12-22T18:05:58.899Z,99994.72
2022-12-22T18:08:25.803Z,99989.59
2022-12-22T18:10:53.707Z,99986.28
2022-12-22T18:13:25.055Z,99990.81
2022-12-22T18:15:53.170Z,99978.59
2022-12-22T18:18:20.865Z,99979.34
2022-12-22T18:21:05.711Z,99976.16
2022-12-22T18:23:37.087Z,99969.00
2022-12-22T18:26:11.009Z,99972.28
2022-12-22T18:28:37.965Z,99953.28
2022-12-22T18:31:04.989Z,99964.25
2022-12-22T18:33:31.980Z,99956.00
2022-12-22T18:36:00.204Z,99962.81
2022-12-22T18:38:32.800Z,99955.38
2022-12-22T18:41:00.267Z,99952.69
2022-12-22T18:43:27.463Z,99947.34
2022-12-22T18:45:54.452Z,99945.75
2022-12-22T18:48:21.375Z,99943.97
2022-12-22T18:50:48.640Z,99943.41
2022-12-22T18:53:26.851Z,99945.59
2022-12-22T18:55:54.938Z,99940.63
2022-12-22T18:58:22.653Z,99933.91
2022-12-22T19:00:50.933Z,99941.47
2022-12-22T19:03:29.136Z,99923.19
2022-12-22T19:05:57.464Z,99917.19
2022-12-22T19:08:27.514Z,99922.31
2022-12-22T19:10:57.744Z,99906.88
2022-12-22T19:13:38.854Z,99907.69
2022-12-22T19:16:07.544Z,99902.84
2022-12-22T19:18:34.425Z,99894.41
2022-12-22T19:21:01.352Z,99889.88
2022-12-22T19:23:28.250Z,99889.44
2022-12-22T19:26:07.782Z,99880.28
2022-12-22T19:28:40.230Z,99892.69
2022-12-22T19:31:10.189Z,99873.97
2022-12-22T19:33:43.132Z,99886.97
2022-12-22T19:36:27.898Z,99879.84
2022-12-22T19:39:05.897Z,99879.34
2022-12-22T19:41:49.363Z,99867.13
2022-12-22T19:44:27.304Z,99863.78
2022-12-22T19:46:55.705Z,99873.94
2022-12-22T19:49:26.919Z,99871.09
2022-12-22T19:51:56.119Z,99873.25
2022-12-22T19:54:23.972Z,99867.94
2022-12-22T19:56:56.000Z,99868.81
2022-12-22T19:59:38.502Z,99871.13
2022-12-22T20:02:21.756Z,99865.16
2022-12-22T20:04:50.259Z,99860.69
2022-12-22T20:07:20.972Z,99861.53
2022-12-22T20:09:48.946Z,99859.47
2022-12-22T20:12:39.137Z,99850.81
2022-12-22T20:15:18.618Z,99845.84
2022-12-22T20:17:50.421Z,99840.00
2022-12-22T20:20:40.340Z,99835.91
2022-12-22T20:23:15.633Z,99835.03
2022-12-22T20:25:58.549Z,99829.66
2022-12-22T20:28:29.990Z,99836.59
2022-12-22T20:30:58.419Z,99839.56
2022-12-22T20:33:26.495Z,99828.44
2022-12-22T20:35:56.259Z,99822.34
2022-12-22T20:38:36.554Z,99827.34
2022-12-22T20:41:07.408Z,99821.97
2022-12-22T20:43:37.897Z,99814.75
2022-12-22T20:46:16.514Z,99806.25
2022-12-22T20:49:04.461Z,99800.16
2022-12-22T20:51:33.790Z,99811.28
2022-12-22T20:54:01.194Z,99798.84
2022-12-22T20:56:37.605Z,99794.72
2022-12-22T20:59:21.871Z,99809.56
2022-12-22T21:01:51.327Z,99805.44
2022-12-22T21:04:18.828Z,99807.97
2022-12-22T21:06:53.864Z,99802.91
2022-12-22T21:09:21.604Z,99794.59
2022-12-22T21:11:48.913Z,99792.31
2022-12-22T21:14:16.740Z,99789.28
2022-12-22T21:16:43.953Z,99789.19
2022-12-22T21:19:19.255Z,99793.22
2022-12-22T21:21:47.370Z,99787.50
2022-12-22T21:24:14.639Z,99776.72
2022-12-22T21:26:47.735Z,99785.00
2022-12-22T21:29:21.336Z,99779.63
2022-12-22T21:31:48.420Z,99766.88
2022-12-22T21:34:15.311Z,99766.13
2022-12-22T21:36:45.557Z,99765.41
2022-12-22T21:39:42.561Z,99761.16
2022-12-22T21:42:15.608Z,99759.31
2022-12-22T21:44:42.879Z,99748.97
2022-12-22T21:47:13.973Z,99753.94
2022-12-22T21:49:41.036Z,99746.19
2022-12-22T21:52:07.973Z,99752.28
2022-12-22T21:54:34.919Z,99746.78
2022-12-22T21:57:01.790Z,99739.84
2022-12-22T21:59:28.791Z,99737.88
2022-12-22T22:01:56.617Z,99735.56
2022-12-22T22:04:24.407Z,99733.97
2022-12-22T22:06:51.318Z,99728.75
2022-12-22T22:09:18.288Z,99713.28
2022-12-22T22:12:03.457Z,99726.06
2022-12-22T22:14:30.416Z,99717.16
2022-12-22T22:16:57.275Z,99716.19
2022-12-22T22:19:24.239Z,99713.63
2022-12-22T22:21:51.117Z,99707.78
2022-12-22T22:24:18.092Z,99713.63
2022-12-22T22:26:45.995Z,99703.03
2022-12-22T22:29:12.967Z,99711.06
2022-12-22T22:31:41.187Z,99704.72
2022-12-22T22:34:09.017Z,99693.19
2022-12-22T22:36:35.886Z,99698.03
2022-12-22T22:39:03.142Z,99703.31
2022-12-22T22:41:33.172Z,99693.69
2022-12-22T22:44:03.493Z,99692.09
2022-12-22T22:46:30.534Z,99699.88
2022-12-22T22:48:58.723Z,99706.97
2022-12-22T22:51:25.711Z,99705.97
2022-12-22T22:53:52.650Z,99692.00
2022-12-22T22:56:19.606Z,99689.91
2022-12-22T22:58:46.560Z,99684.25
2022-12-22T23:01:14.045Z,99684.16
2022-12-22T23:03:41.249Z,99681.94
2022-12-22T23:06:12.119Z,99668.53
2022-12-22T23:08:39.456Z,99670.00
2022-12-22T23:11:13.487Z,99664.63
2022-12-22T23:13:41.103Z,99668.00
2022-12-22T23:16:08.170Z,99662.25
2022-12-22T23:18:35.341Z,99664.25
2022-12-22T23:21:05.562Z,99662.75
2022-12-22T23:23:33.701Z,99668.69
2022-12-22T23:26:00.624Z,99670.50
2022-12-22T23:28:27.679Z,99655.41
2022-12-22T23:30:54.794Z,99660.38
2022-12-22T23:33:22.474Z,99672.91
2022-12-22T23:35:50.174Z,99672.75
2022-12-22T23:38:20.922Z,99681.63
2022-12-22T23:40:53.473Z,99670.22
2022-12-22T23:43:21.847Z,99673.16
2022-12-22T23:45:48.754Z,99673.00
2022-12-22T23:48:15.771Z,99673.00
2022-12-22T23:50:46.410Z,99664.25
2022-12-22T23:53:13.797Z,99670.22
2022-12-22T23:55:50.140Z,99663.84
2022-12-22T23:58:17.784Z,99667.78
